Terminal Aerodrome Forecast
Issued by NWS

Home | Current Version | Previous Version | Text Only | Print | Product List | Glossary On
Versions: 1 2 3 4 5 6 7 8 9 10 11 12
000
FTUS46 KMTR 292300
TAFMRY
TAF
KMRY 292339Z 3000/3024 31006KT P6SM FEW200
     FM300200 12003KT P6SM FEW010 FEW200
     FM300900 12004KT 5SM BR SCT004 BKN007
     FM301700 29005KT P6SM FEW010=

USA.gov is the U.S. government's official web portal to all federal, state and local government web resources and services.